FACT

Cape Town International Airport

Cape Town, South Africa
TAF AMD FACT 230820Z 2306/2412 34019KT 9999 BKN015 TEMPO 2306/2310 BKN005 TEMPO 2309/2317 34022G32KT TEMPO 2315/2324 3000 RA BKN006 FM240000 31010KT 9999 SCT020 BKN030 TEMPO 2400/2406 4000 -SHRA TX24/2312Z TN14/2405Z
Issued Valid From Valid To
Apr-23 @ 08:20 UTC
(an hour ago)
Apr-23 @ 06:00 UTC
(4 hours ago)
Apr-24 @ 12:00 UTC
(-1 days ago)
Apr-23 @ 06:00 to Apr-24 @ 00:00
TAF AMD FACT 230820Z 2306/2412 34019KT 9999 BKN015
Wind Visibility Clouds
340° at 19 knots 10,000+ meters
  • Broken at 1,500' AGL
Temporary Apr-23 @ 06:00 to Apr-23 @ 10:00
TEMPO 2306/2310 BKN005
Clouds
  • Broken at 500' AGL
Temporary Apr-23 @ 09:00 to Apr-23 @ 17:00
TEMPO 2309/2317 34022G32KT
Wind
340° at 22 knots
 Gusting to 32 knots
Temporary Apr-23 @ 15:00 to Apr-24 @ 00:00
TEMPO 2315/2324 3000 RA BKN006
Visibility Clouds Conditions
2,993 meters
  • Broken at 600' AGL
  • Rain
Temporary Apr-24 @ 00:00 to Apr-24 @ 06:00
TEMPO 2400/2406 4000 -SHRA TX24/2312Z TN14/2405Z
Visibility Conditions
4,007 meters
  • Light Rain
From Apr-24 @ 00:00 to Apr-24 @ 12:00
FM240000 31010KT 9999 SCT020 BKN030
Wind Visibility Clouds
310° at 10 knots 10,000+ meters
  • Scattered at 2,000' AGL
  • Broken at 3,000' AGL
TAF AMD FACT 230820Z 2306/2412 34019KT 9999 BKN015 TEMPO 2306/2310 BKN005 TEMPO 2309/2317 34022G32KT TEMPO 2315/2324 3000 RA BKN006 FM240000 31010KT 9999 SCT020 BKN030 TEMPO 2400/2406 4000 -SHRA TX24/2312Z TN14/2405Z
Issued Apr-23 @ 08:20 UTC
(an hour ago)
Valid From Apr-23 @ 06:00 UTC
(4 hours ago)
Valid To Apr-24 @ 12:00 UTC
(-1 days ago)
Apr-23 @ 06:00 - Apr-24 @ 00:00
Wind Visibility
340° at 19 knots 10,000+ meters
Clouds
  • Broken at 1,500' AGL
Temporary Apr-23 @ 06:00 - Apr-23 @ 10:00
Clouds
  • Broken at 500' AGL
Temporary Apr-23 @ 09:00 - Apr-23 @ 17:00
Wind
340° at 22 knots
 Gusting to 32 knots
Temporary Apr-23 @ 15:00 - Apr-24 @ 00:00
Clouds
  • Broken at 600' AGL
Conditions
  • Rain
Temporary Apr-24 @ 00:00 - Apr-24 @ 06:00
Conditions
  • Light Rain
From Apr-24 @ 00:00 - Apr-24 @ 12:00
Wind Visibility
310° at 10 knots 10,000+ meters
Clouds
  • Scattered at 2,000' AGL
  • Broken at 3,000' AGL